createdAt,value
2019-05-03T00:02:42.440Z,10.80
2019-05-03T00:05:16.833Z,10.80
2019-05-03T00:07:43.302Z,10.70
2019-05-03T00:10:12.869Z,10.60
2019-05-03T00:12:39.368Z,10.60
2019-05-03T00:15:12.108Z,10.70
2019-05-03T00:17:38.300Z,10.90
2019-05-03T00:20:05.114Z,10.90
2019-05-03T00:22:32.384Z,10.90
2019-05-03T00:25:05.923Z,10.90
2019-05-03T00:27:27.249Z,11.20
2019-05-03T00:29:53.916Z,11.20
2019-05-03T00:32:22.233Z,11.20
2019-05-03T00:37:33.751Z,11.30
2019-05-03T00:40:02.075Z,11.20
2019-05-03T00:42:28.382Z,11.20
2019-05-03T00:44:55.145Z,11.10
2019-05-03T00:47:22.271Z,11.00
2019-05-03T00:49:49.113Z,10.90
2019-05-03T00:52:15.782Z,10.90
2019-05-03T00:54:42.442Z,10.90
2019-05-03T00:57:09.052Z,10.90
2019-05-03T00:59:36.480Z,11.00
2019-05-03T01:02:03.161Z,11.00
2019-05-03T01:04:31.668Z,11.00
2019-05-03T01:06:58.032Z,11.10
2019-05-03T01:09:25.214Z,11.00
2019-05-03T01:11:52.450Z,11.10
2019-05-03T01:14:18.865Z,11.10
2019-05-03T01:16:45.413Z,11.10
2019-05-03T01:19:12.162Z,11.10
2019-05-03T01:21:38.693Z,11.00
2019-05-03T01:24:05.462Z,11.00
2019-05-03T01:26:32.057Z,11.00
2019-05-03T01:28:58.633Z,11.00
2019-05-03T01:31:25.244Z,10.90
2019-05-03T01:33:52.097Z,11.00
2019-05-03T01:36:18.517Z,11.00
2019-05-03T01:38:44.752Z,11.10
2019-05-03T01:41:12.318Z,11.20
2019-05-03T01:43:39.262Z,11.20
2019-05-03T01:46:05.920Z,11.30
2019-05-03T01:48:34.425Z,11.00
2019-05-03T01:51:17.777Z,11.00
2019-05-03T01:53:44.245Z,11.00
2019-05-03T01:56:11.824Z,10.90
2019-05-03T01:58:38.370Z,10.90
2019-05-03T02:01:06.990Z,11.00
2019-05-03T02:03:52.889Z,11.10
2019-05-03T02:06:19.157Z,11.20
2019-05-03T02:08:45.809Z,11.00
2019-05-03T02:11:12.520Z,10.90
2019-05-03T02:13:39.238Z,10.90
2019-05-03T02:16:05.688Z,10.80
2019-05-03T02:18:31.944Z,10.70
2019-05-03T02:20:58.177Z,10.60
2019-05-03T02:23:24.793Z,10.70
2019-05-03T02:25:56.799Z,10.80
2019-05-03T02:28:19.711Z,10.70
2019-05-03T02:30:46.347Z,10.70
2019-05-03T02:33:13.406Z,10.70
2019-05-03T02:35:43.028Z,10.90
2019-05-03T02:38:09.653Z,11.00
2019-05-03T02:40:36.290Z,10.90
2019-05-03T02:43:05.526Z,10.90
2019-05-03T02:45:35.168Z,10.90
2019-05-03T02:48:20.845Z,10.70
2019-05-03T02:50:47.318Z,10.70
2019-05-03T02:53:15.681Z,10.70
2019-05-03T02:55:42.218Z,10.70
2019-05-03T02:58:08.485Z,10.50
2019-05-03T03:01:00.744Z,10.60
2019-05-03T03:03:28.153Z,10.70
2019-05-03T03:05:56.564Z,10.60
2019-05-03T03:08:45.934Z,10.60
2019-05-03T03:11:16.249Z,10.60
2019-05-03T03:13:45.778Z,10.70
2019-05-03T03:16:15.614Z,10.60
2019-05-03T03:18:40.975Z,10.40
2019-05-03T03:21:20.776Z,10.40
2019-05-03T03:24:05.895Z,10.20
2019-05-03T03:26:41.172Z,10.10
2019-05-03T03:29:06.311Z,10.20
2019-05-03T03:31:48.208Z,10.20
2019-05-03T03:34:18.228Z,10.20
2019-05-03T03:36:59.257Z,10.20
2019-05-03T03:39:16.417Z,10.20
2019-05-03T03:41:45.354Z,10.30
2019-05-03T03:44:15.158Z,10.30
2019-05-03T03:46:45.294Z,10.20
2019-05-03T03:49:12.556Z,10.00
2019-05-03T03:51:39.944Z,9.60
2019-05-03T03:54:10.260Z,9.60
2019-05-03T03:56:54.529Z,9.50
2019-05-03T03:59:08.094Z,9.40
2019-05-03T04:01:35.046Z,9.40
2019-05-03T04:04:01.668Z,9.40
2019-05-03T04:06:40.875Z,9.50
2019-05-03T04:09:07.292Z,9.40
2019-05-03T04:11:35.031Z,9.50
2019-05-03T04:14:05.251Z,9.60
2019-05-03T04:16:33.073Z,9.60
2019-05-03T04:19:01.452Z,9.40
2019-05-03T04:21:27.876Z,9.50
2019-05-03T04:23:55.827Z,9.40
2019-05-03T04:26:22.413Z,9.50
2019-05-03T04:28:49.035Z,9.50
2019-05-03T04:31:15.761Z,9.60
2019-05-03T04:33:42.120Z,9.60
2019-05-03T04:36:08.761Z,9.50
2019-05-03T04:38:35.687Z,9.60
2019-05-03T04:41:02.069Z,9.70
2019-05-03T04:43:28.695Z,9.70
2019-05-03T04:46:09.104Z,9.70
2019-05-03T04:48:35.945Z,9.80
2019-05-03T04:51:05.933Z,9.90
2019-05-03T04:53:35.582Z,10.00
2019-05-03T04:56:01.517Z,10.00
2019-05-03T04:58:28.157Z,10.10
2019-05-03T05:00:55.379Z,9.90
2019-05-03T05:03:21.849Z,10.00
2019-05-03T05:05:48.497Z,9.90
2019-05-03T05:08:16.284Z,9.70
2019-05-03T05:10:45.206Z,9.50
2019-05-03T05:13:11.253Z,9.60
2019-05-03T05:15:37.646Z,9.60
2019-05-03T05:18:15.986Z,9.60
2019-05-03T05:20:45.396Z,9.70
2019-05-03T05:23:11.705Z,9.70
2019-05-03T05:25:44.498Z,9.80
2019-05-03T05:28:18.768Z,9.90
2019-05-03T05:30:45.189Z,9.80
2019-05-03T05:33:20.726Z,9.90
2019-05-03T05:35:48.556Z,9.80
2019-05-03T05:38:15.052Z,9.70
2019-05-03T05:40:41.573Z,9.70
2019-05-03T05:43:08.318Z,9.70
2019-05-03T05:45:34.946Z,9.70
2019-05-03T05:48:12.184Z,9.60
2019-05-03T05:50:40.331Z,9.70
2019-05-03T05:53:06.629Z,9.70
2019-05-03T05:55:51.575Z,9.80
2019-05-03T05:58:19.688Z,9.80
2019-05-03T06:00:50.690Z,9.90
2019-05-03T06:03:17.908Z,10.00
2019-05-03T06:05:44.707Z,10.20
2019-05-03T06:08:25.317Z,10.40
2019-05-03T06:10:55.324Z,10.60
2019-05-03T06:13:26.485Z,10.70
2019-05-03T06:15:54.859Z,10.80
2019-05-03T06:18:25.046Z,10.60
2019-05-03T06:21:09.996Z,10.70
2019-05-03T06:23:50.153Z,10.90
2019-05-03T06:26:34.983Z,10.80
2019-05-03T06:29:04.479Z,11.20
2019-05-03T06:31:35.372Z,11.90
2019-05-03T06:34:01.840Z,12.10
2019-05-03T06:36:27.971Z,12.50
2019-05-03T06:38:54.739Z,13.10
2019-05-03T06:41:21.054Z,13.30
2019-05-03T06:43:48.592Z,13.50
2019-05-03T06:46:18.161Z,14.10
2019-05-03T06:48:44.392Z,14.10
2019-05-03T06:51:14.787Z,14.40
2019-05-03T06:53:41.790Z,14.60
2019-05-03T06:56:06.745Z,14.50
2019-05-03T06:58:34.266Z,13.90
2019-05-03T07:01:05.937Z,13.70
2019-05-03T07:03:39.868Z,13.70
2019-05-03T07:06:11.148Z,13.40
2019-05-03T07:08:44.834Z,13.40
2019-05-03T07:11:10.484Z,13.40
2019-05-03T07:13:36.692Z,13.20
2019-05-03T07:16:04.691Z,13.20
2019-05-03T07:18:31.189Z,13.00
2019-05-03T07:20:58.356Z,13.00
2019-05-03T07:23:24.771Z,13.10
2019-05-03T07:25:51.200Z,12.90
2019-05-03T07:28:17.348Z,12.90
2019-05-03T07:30:45.419Z,12.70
2019-05-03T07:33:31.731Z,12.80
2019-05-03T07:35:57.942Z,12.80
2019-05-03T07:38:24.952Z,12.90
2019-05-03T07:40:51.496Z,13.10
2019-05-03T07:43:18.954Z,13.20
2019-05-03T07:45:45.452Z,13.20
2019-05-03T07:48:11.697Z,13.30
2019-05-03T07:50:37.832Z,13.80
2019-05-03T07:53:04.624Z,13.70
2019-05-03T07:55:51.101Z,13.30
2019-05-03T07:58:35.106Z,13.40
2019-05-03T08:01:08.899Z,13.20
2019-05-03T08:03:32.063Z,13.30
2019-05-03T08:05:58.278Z,13.40
2019-05-03T08:08:25.035Z,13.40
2019-05-03T08:10:51.772Z,13.30
2019-05-03T08:13:18.593Z,13.10
2019-05-03T08:15:45.287Z,13.20
2019-05-03T08:18:12.085Z,13.60
2019-05-03T08:20:38.347Z,13.50
2019-05-03T08:23:05.260Z,13.00
2019-05-03T08:25:31.804Z,13.00
2019-05-03T08:27:58.108Z,13.10
2019-05-03T08:30:44.455Z,12.90
2019-05-03T08:33:14.716Z,13.20
2019-05-03T08:35:44.684Z,13.30
2019-05-03T08:38:10.564Z,13.40
2019-05-03T08:40:38.734Z,13.50
2019-05-03T08:43:05.254Z,13.60
2019-05-03T08:45:31.608Z,13.50
2019-05-03T08:47:57.823Z,13.40
2019-05-03T08:50:25.689Z,13.30
2019-05-03T08:52:52.116Z,13.20
2019-05-03T08:55:18.347Z,13.20
2019-05-03T08:57:45.029Z,13.20
2019-05-03T09:00:16.857Z,13.50
2019-05-03T09:02:44.721Z,14.10
2019-05-03T09:05:12.326Z,14.30
2019-05-03T09:07:38.676Z,14.50
2019-05-03T09:10:12.562Z,14.10
2019-05-03T09:12:57.125Z,13.70
2019-05-03T09:15:24.635Z,13.70
2019-05-03T09:17:51.116Z,14.20
2019-05-03T09:20:17.439Z,14.50
2019-05-03T09:22:45.294Z,14.50
2019-05-03T09:25:15.311Z,14.20
2019-05-03T09:27:41.132Z,14.00
2019-05-03T09:30:07.496Z,14.20
2019-05-03T09:32:35.022Z,14.10
2019-05-03T09:35:05.521Z,14.10
2019-05-03T09:37:31.439Z,13.80
2019-05-03T09:39:57.679Z,13.80
2019-05-03T09:42:24.774Z,14.20
2019-05-03T09:44:52.593Z,14.30
2019-05-03T09:47:18.956Z,14.00
2019-05-03T09:49:45.487Z,13.90
2019-05-03T09:52:11.870Z,13.80
2019-05-03T09:54:40.022Z,14.10
2019-05-03T09:57:06.273Z,14.30
2019-05-03T09:59:32.503Z,14.10
2019-05-03T10:01:59.277Z,14.40
2019-05-03T10:04:25.686Z,14.80
2019-05-03T10:06:51.994Z,15.20
2019-05-03T10:09:18.280Z,15.30
2019-05-03T10:11:45.885Z,16.00
2019-05-03T10:14:12.813Z,16.00
2019-05-03T10:16:44.827Z,15.70
2019-05-03T10:19:14.307Z,15.50
2019-05-03T10:21:41.865Z,15.50
2019-05-03T10:24:08.138Z,16.00
2019-05-03T10:26:35.608Z,16.10
2019-05-03T10:29:02.083Z,16.50
2019-05-03T10:31:30.252Z,15.50
2019-05-03T10:34:05.574Z,14.90
2019-05-03T10:36:31.762Z,15.20
2019-05-03T10:38:58.139Z,15.30
2019-05-03T10:41:25.087Z,14.80
2019-05-03T10:43:51.742Z,14.50
2019-05-03T10:46:17.987Z,14.10
2019-05-03T10:48:45.128Z,14.10
2019-05-03T10:51:11.563Z,14.10
2019-05-03T10:53:39.824Z,14.20
2019-05-03T10:56:14.834Z,13.90
2019-05-03T10:58:45.321Z,13.70
2019-05-03T11:01:12.178Z,13.40
2019-05-03T11:03:38.429Z,13.50
2019-05-03T11:06:05.489Z,13.70
2019-05-03T11:08:32.026Z,13.70
2019-05-03T11:10:58.358Z,13.70
2019-05-03T11:13:26.430Z,13.50
2019-05-03T11:15:54.825Z,13.70
2019-05-03T11:18:20.804Z,13.70
2019-05-03T11:20:47.080Z,13.50
2019-05-03T11:23:14.596Z,13.50
2019-05-03T11:25:41.392Z,13.60
2019-05-03T11:28:15.302Z,13.90
2019-05-03T11:30:53.584Z,13.80
2019-05-03T11:33:15.358Z,13.80
2019-05-03T11:35:44.661Z,13.80
2019-05-03T11:38:16.114Z,13.90
2019-05-03T11:40:42.366Z,14.20
2019-05-03T11:43:08.921Z,14.10
2019-05-03T11:45:35.488Z,14.60
2019-05-03T11:48:03.012Z,14.80
2019-05-03T11:50:29.257Z,14.50
2019-05-03T11:52:55.559Z,15.00
2019-05-03T11:55:21.797Z,15.40
2019-05-03T11:57:48.103Z,16.20
2019-05-03T12:00:18.269Z,17.10
2019-05-03T12:02:49.224Z,17.50
2019-05-03T12:05:17.465Z,16.70
2019-05-03T12:07:45.514Z,16.60
2019-05-03T12:10:20.619Z,17.20
2019-05-03T12:12:58.061Z,16.10
2019-05-03T12:15:24.397Z,16.50
2019-05-03T12:17:57.921Z,17.80
2019-05-03T12:20:21.860Z,19.10
2019-05-03T12:22:49.396Z,19.70
2019-05-03T12:25:17.413Z,19.90
2019-05-03T12:27:44.552Z,20.60
2019-05-03T12:30:12.390Z,20.60
2019-05-03T12:32:38.609Z,21.50
2019-05-03T12:35:06.146Z,20.90
2019-05-03T12:37:34.919Z,20.80
2019-05-03T12:40:01.979Z,20.60
2019-05-03T12:42:28.230Z,20.80
2019-05-03T12:44:55.150Z,20.70
2019-05-03T12:47:22.343Z,19.00
2019-05-03T12:49:48.975Z,18.40
2019-05-03T12:52:16.498Z,17.00
2019-05-03T12:54:43.270Z,16.00
2019-05-03T12:57:10.218Z,16.50
2019-05-03T12:59:56.421Z,17.60
2019-05-03T13:02:39.800Z,17.30
2019-05-03T13:05:06.232Z,17.70
2019-05-03T13:07:40.284Z,17.80
2019-05-03T13:10:07.313Z,17.50
2019-05-03T13:12:34.727Z,17.10
2019-05-03T13:15:01.198Z,17.00
2019-05-03T13:17:35.304Z,17.30
2019-05-03T13:20:15.182Z,17.00
2019-05-03T13:22:41.773Z,16.20
2019-05-03T13:25:09.245Z,15.10
2019-05-03T13:27:35.661Z,15.00
2019-05-03T13:30:07.884Z,14.90
2019-05-03T13:32:34.960Z,14.80
2019-05-03T13:35:01.548Z,14.90
2019-05-03T13:37:27.782Z,15.10
2019-05-03T13:39:55.406Z,15.40
2019-05-03T13:42:22.070Z,15.20
2019-05-03T13:44:48.281Z,15.00
2019-05-03T13:47:14.988Z,14.80
2019-05-03T13:49:41.581Z,14.60
2019-05-03T13:52:07.829Z,14.60
2019-05-03T13:54:34.977Z,14.50
2019-05-03T13:57:01.485Z,14.20
2019-05-03T13:59:27.713Z,14.00
2019-05-03T14:01:54.578Z,14.10
2019-05-03T14:04:20.994Z,14.30
2019-05-03T14:06:47.342Z,14.60
2019-05-03T14:09:13.576Z,14.70
2019-05-03T14:11:39.794Z,14.80
2019-05-03T14:14:06.054Z,14.70
2019-05-03T14:16:33.361Z,14.80
2019-05-03T14:19:01.536Z,14.90
2019-05-03T14:21:29.660Z,15.10
2019-05-03T14:24:11.798Z,15.30
2019-05-03T14:26:39.918Z,14.90
2019-05-03T14:29:06.869Z,14.90
2019-05-03T14:31:34.636Z,14.80
2019-05-03T14:34:01.336Z,14.80
2019-05-03T14:36:27.592Z,15.00
2019-05-03T14:38:54.839Z,14.90
2019-05-03T14:41:21.640Z,15.00
2019-05-03T14:43:47.956Z,14.70
2019-05-03T14:46:15.062Z,14.20
2019-05-03T14:48:42.332Z,14.00
2019-05-03T14:51:08.464Z,14.10
2019-05-03T14:53:34.939Z,14.20
2019-05-03T14:59:16.701Z,14.30
2019-05-03T15:01:47.606Z,14.10
2019-05-03T15:04:15.157Z,14.00
2019-05-03T15:06:41.506Z,14.00
2019-05-03T15:09:07.929Z,14.00
2019-05-03T15:11:34.562Z,14.00
2019-05-03T15:14:01.305Z,14.10
2019-05-03T15:16:27.520Z,14.20
2019-05-03T15:18:54.865Z,14.20
2019-05-03T15:21:21.321Z,14.20
2019-05-03T15:23:47.557Z,14.40
2019-05-03T15:26:13.813Z,14.40
2019-05-03T15:28:40.037Z,14.50
2019-05-03T15:31:06.284Z,14.40
2019-05-03T15:33:32.511Z,14.70
2019-05-03T15:35:58.764Z,14.90
2019-05-03T15:38:24.984Z,14.90
2019-05-03T15:40:51.569Z,15.00
2019-05-03T15:43:22.514Z,15.00
2019-05-03T15:46:02.639Z,15.00
2019-05-03T15:48:30.780Z,15.10
2019-05-03T15:50:57.007Z,14.60
2019-05-03T15:53:24.689Z,14.20
2019-05-03T15:55:51.186Z,14.20
2019-05-03T15:58:17.437Z,14.50
2019-05-03T16:00:44.533Z,14.60
2019-05-03T16:03:11.459Z,14.40
2019-05-03T16:05:37.775Z,14.60
2019-05-03T16:08:04.631Z,14.50
2019-05-03T16:10:31.250Z,14.80
2019-05-03T16:12:57.564Z,14.80
2019-05-03T16:15:24.582Z,14.90
2019-05-03T16:17:51.250Z,14.80
2019-05-03T16:20:17.750Z,15.00
2019-05-03T16:22:45.030Z,15.30
2019-05-03T16:25:12.112Z,15.60
2019-05-03T16:27:40.269Z,15.20
2019-05-03T16:30:26.047Z,14.60
2019-05-03T16:32:52.270Z,14.70
2019-05-03T16:35:18.524Z,15.00
2019-05-03T16:37:45.239Z,15.00
2019-05-03T16:40:11.885Z,14.90
2019-05-03T16:42:38.103Z,14.80
2019-05-03T16:45:05.571Z,14.60
2019-05-03T16:47:32.192Z,14.50
2019-05-03T16:49:58.405Z,14.40
2019-05-03T16:52:25.670Z,14.60
2019-05-03T16:54:52.068Z,14.60
2019-05-03T16:57:18.326Z,14.60
2019-05-03T16:59:45.807Z,14.30
2019-05-03T17:02:12.090Z,14.10
2019-05-03T17:04:40.286Z,13.90
2019-05-03T17:07:08.435Z,13.90
2019-05-03T17:09:40.553Z,13.70
2019-05-03T17:12:11.872Z,13.60
2019-05-03T17:14:38.079Z,13.70
2019-05-03T17:17:04.634Z,13.70
2019-05-03T17:19:32.524Z,13.80
2019-05-03T17:21:58.744Z,14.00
2019-05-03T17:24:25.009Z,14.00
2019-05-03T17:26:51.248Z,13.90
2019-05-03T17:29:17.475Z,13.80
2019-05-03T17:31:44.490Z,13.70
2019-05-03T17:34:10.994Z,13.70
2019-05-03T17:36:37.238Z,13.60
2019-05-03T17:39:07.292Z,13.50
2019-05-03T17:44:24.313Z,13.50
2019-05-03T17:46:50.541Z,13.60
2019-05-03T17:49:17.074Z,13.50
2019-05-03T17:51:55.449Z,13.60
2019-05-03T17:54:26.403Z,13.50
2019-05-03T17:56:55.122Z,13.60
2019-05-03T17:59:24.428Z,13.80
2019-05-03T18:02:09.488Z,13.90
2019-05-03T18:04:43.565Z,14.00
2019-05-03T18:07:30.506Z,14.00
2019-05-03T18:09:58.805Z,13.70
2019-05-03T18:12:25.032Z,13.50
2019-05-03T18:14:51.181Z,13.40
2019-05-03T18:17:17.677Z,13.40
2019-05-03T18:19:44.836Z,13.60
2019-05-03T18:22:11.491Z,13.60
2019-05-03T18:24:37.732Z,13.60
2019-05-03T18:27:04.299Z,13.50
2019-05-03T18:29:30.514Z,13.40
2019-05-03T18:31:56.728Z,13.30
2019-05-03T18:34:24.961Z,13.40
2019-05-03T18:36:51.009Z,13.20
2019-05-03T18:39:17.432Z,13.20
2019-05-03T18:41:45.191Z,13.10
2019-05-03T18:44:14.818Z,13.10
2019-05-03T18:46:46.109Z,13.20
2019-05-03T18:49:12.425Z,13.00
2019-05-03T18:51:38.787Z,13.10
2019-05-03T18:54:07.243Z,13.10
2019-05-03T18:56:34.697Z,12.80
2019-05-03T18:59:02.241Z,12.70
2019-05-03T19:01:28.637Z,12.60
2019-05-03T19:03:56.773Z,12.60
2019-05-03T19:06:23.243Z,12.70
2019-05-03T19:09:06.335Z,12.60
2019-05-03T19:11:37.282Z,12.40
2019-05-03T19:14:15.035Z,12.20
2019-05-03T19:16:46.224Z,12.10
2019-05-03T19:19:15.173Z,12.10
2019-05-03T19:21:41.527Z,12.10
2019-05-03T19:24:07.786Z,12.10
2019-05-03T19:26:35.293Z,12.10
2019-05-03T19:29:01.816Z,12.20
2019-05-03T19:31:27.961Z,12.10
2019-05-03T19:33:55.078Z,12.10
2019-05-03T19:36:21.983Z,11.90
2019-05-03T19:38:48.439Z,11.90
2019-05-03T19:41:16.316Z,11.90
2019-05-03T19:43:44.459Z,12.00
2019-05-03T19:46:11.249Z,12.10
2019-05-03T19:48:37.817Z,12.10
2019-05-03T19:51:05.737Z,12.00
2019-05-03T19:53:35.951Z,12.00
2019-05-03T19:56:02.479Z,12.00
2019-05-03T19:58:28.872Z,12.00
2019-05-03T20:01:14.803Z,12.00
2019-05-03T20:03:43.235Z,12.00
2019-05-03T20:06:17.109Z,12.00
2019-05-03T20:08:48.000Z,12.10
2019-05-03T20:11:15.344Z,12.30
2019-05-03T20:13:44.963Z,12.30
2019-05-03T20:16:10.979Z,12.20
2019-05-03T20:18:37.281Z,12.10
2019-05-03T20:21:04.379Z,11.90
2019-05-03T20:23:30.885Z,11.80
2019-05-03T20:25:57.105Z,11.90
2019-05-03T20:28:24.741Z,11.90
2019-05-03T20:30:51.205Z,12.00
2019-05-03T20:33:17.465Z,11.90
2019-05-03T20:35:45.162Z,11.90
2019-05-03T20:38:11.868Z,11.90
2019-05-03T20:40:38.089Z,11.90
2019-05-03T20:43:11.978Z,12.00
2019-05-03T20:45:44.541Z,12.00
2019-05-03T20:48:15.927Z,11.90
2019-05-03T20:50:42.204Z,11.80
2019-05-03T20:53:08.425Z,11.90
2019-05-03T20:55:34.844Z,12.00
2019-05-03T20:58:01.389Z,12.00
2019-05-03T21:00:27.541Z,11.90
2019-05-03T21:02:57.178Z,11.70
2019-05-03T21:05:29.538Z,11.70
2019-05-03T21:07:50.496Z,11.80
2019-05-03T21:10:17.265Z,12.10
2019-05-03T21:12:43.523Z,12.20
2019-05-03T21:15:15.535Z,12.30
2019-05-03T21:17:52.460Z,12.50
2019-05-03T21:20:38.896Z,12.50
2019-05-03T21:23:07.422Z,12.30
2019-05-03T21:26:05.103Z,12.20
2019-05-03T21:28:12.601Z,12.20
2019-05-03T21:30:38.912Z,12.20
2019-05-03T21:33:05.472Z,12.40
2019-05-03T21:35:40.849Z,12.40
2019-05-03T21:38:00.520Z,12.40
2019-05-03T21:40:26.880Z,12.50
2019-05-03T21:42:54.585Z,12.40
2019-05-03T21:45:24.690Z,12.40
2019-05-03T21:47:54.739Z,12.20
2019-05-03T21:50:22.084Z,12.10
2019-05-03T21:52:48.494Z,11.80
2019-05-03T21:55:15.148Z,11.60
2019-05-03T21:57:41.764Z,11.30
2019-05-03T22:00:10.531Z,11.10
2019-05-03T22:02:37.381Z,11.00
2019-05-03T22:05:04.852Z,10.90
2019-05-03T22:07:31.088Z,10.70
2019-05-03T22:09:57.460Z,10.90
2019-05-03T22:12:24.887Z,10.90
2019-05-03T22:14:54.505Z,11.00
2019-05-03T22:17:39.703Z,11.10
2019-05-03T22:20:08.248Z,11.00
2019-05-03T22:22:36.566Z,11.00
2019-05-03T22:25:29.777Z,10.90
2019-05-03T22:27:56.335Z,10.80
2019-05-03T22:30:24.311Z,10.70
2019-05-03T22:32:51.366Z,10.60
2019-05-03T22:35:17.876Z,10.50
2019-05-03T22:37:44.675Z,10.40
2019-05-03T22:40:11.145Z,10.40
2019-05-03T22:42:37.400Z,10.30
2019-05-03T22:45:04.931Z,10.10
2019-05-03T22:47:31.517Z,10.10
2019-05-03T22:49:58.111Z,10.10
2019-05-03T22:52:25.756Z,10.00
2019-05-03T22:54:52.196Z,9.80
2019-05-03T22:57:18.443Z,9.60
2019-05-03T22:59:45.135Z,9.40
2019-05-03T23:02:11.716Z,9.00
2019-05-03T23:04:37.993Z,8.80
2019-05-03T23:07:05.570Z,8.60
2019-05-03T23:09:32.111Z,8.40
2019-05-03T23:11:58.713Z,8.20
2019-05-03T23:14:25.719Z,8.10
2019-05-03T23:16:52.404Z,8.00
2019-05-03T23:19:19.016Z,8.00
2019-05-03T23:21:47.181Z,7.90
2019-05-03T23:24:15.321Z,7.80
2019-05-03T23:26:41.556Z,7.70
2019-05-03T23:29:08.864Z,7.70
2019-05-03T23:31:35.472Z,7.60
2019-05-03T23:34:01.724Z,7.60
2019-05-03T23:36:33.440Z,7.60
2019-05-03T23:38:56.657Z,7.60
2019-05-03T23:41:24.561Z,7.60
2019-05-03T23:43:51.171Z,7.50
2019-05-03T23:46:19.660Z,7.50
2019-05-03T23:48:46.038Z,7.40
2019-05-03T23:51:14.929Z,7.40
2019-05-03T23:53:41.371Z,7.30
2019-05-03T23:56:21.584Z,7.10
2019-05-03T23:58:48.156Z,7.20
